Time;durP1;ratioP1;P1;durP2;ratioP2;P2;SDS_P1;SDS_P2;PMS_P1;PMS_P2;Temp;Humidity;BMP_temperature;BMP_pressure;BME280_temperature;BME280_humidity;BME280_pressure;Samples;Min_cycle;Max_cycle;Signal;HPM_P1;HPM_P2
2021/08/02 00:02:08;;;;;;;;;3.33;2.67;;;;;;;;3547564;39;113274;-73
2021/08/02 00:04:39;;;;;;;;;3.00;3.00;;;;;;;;3548394;39;113824;-73
2021/08/02 00:07:05;;;;;;;;;3.50;3.00;;;;;;;;3547517;39;112038;-73
2021/08/02 00:09:33;;;;;;;;;4.00;3.00;;;;;;;;3551070;39;113389;-74
2021/08/02 00:12:01;;;;;;;;;7.50;4.50;;;;;;;;3547389;39;112026;-73
2021/08/02 00:14:27;;;;;;;;;4.00;3.00;;;;;;;;3550024;39;113173;-72
2021/08/02 00:16:55;;;;;;;;;5.00;4.00;;;;;;;;3547287;39;112591;-72
2021/08/02 00:19:22;;;;;;;;;4.00;2.75;;;;;;;;3549897;39;111834;-73
2021/08/02 00:21:49;;;;;;;;;2.75;2.75;;;;;;;;3549302;39;113309;-71
2021/08/02 00:24:17;;;;;;;;;7.50;4.00;;;;;;;;3548964;39;113747;-74
2021/08/02 00:26:44;;;;;;;;;7.75;5.25;;;;;;;;3549502;39;111885;-74
2021/08/02 00:29:11;;;;;;;;;3.50;3.50;;;;;;;;3549171;39;113355;-72
2021/08/02 00:31:38;;;;;;;;;7.00;2.50;;;;;;;;3551997;39;114416;-73
2021/08/02 00:34:06;;;;;;;;;4.00;4.00;;;;;;;;3548876;39;113301;-72
2021/08/02 00:36:39;;;;;;;;;3.00;3.00;;;;;;;;3549797;39;113098;-72
2021/08/02 00:39:07;;;;;;;;;4.75;3.00;;;;;;;;3548761;39;111839;-72
2021/08/02 00:41:47;;;;;;;;;3.75;3.25;;;;;;;;3550316;39;113153;-72
2021/08/02 00:44:41;;;;;;;;;3.00;3.00;;;;;;;;3548847;39;113848;-73
2021/08/02 00:47:13;;;;;;;;;2.75;2.75;;;;;;;;3546872;39;113870;-72
2021/08/02 00:49:47;;;;;;;;;4.75;3.75;;;;;;;;3549644;39;112533;-73
2021/08/02 00:52:15;;;;;;;;;4.25;4.00;;;;;;;;3548641;39;113875;-72
2021/08/02 00:54:43;;;;;;;;;4.25;3.50;;;;;;;;3550585;39;112151;-72
2021/08/02 00:57:11;;;;;;;;;4.75;4.00;;;;;;;;3544343;39;113909;-72
2021/08/02 00:59:39;;;;;;;;;4.25;4.00;;;;;;;;3548777;39;113315;-73
2021/08/02 01:02:05;;;;;;;;;3.75;3.25;;;;;;;;3549906;39;113386;-73
2021/08/02 01:04:33;;;;;;;;;6.50;3.00;;;;;;;;3547919;39;114590;-72
2021/08/02 01:07:02;;;;;;;;;4.00;2.00;;;;;;;;3548457;39;112107;-73
2021/08/02 01:09:30;;;;;;;;;5.50;3.00;;;;;;;;3548456;39;113267;-73
2021/08/02 01:11:58;;;;;;;;;2.75;2.25;;;;;;;;3549673;39;113850;-73
2021/08/02 01:14:26;;;;;;;;;3.75;2.75;;;;;;;;3548699;39;112380;-73
2021/08/02 01:16:54;;;;;;;;;3.50;3.50;;;;;;;;3551821;39;113100;-73
2021/08/02 01:19:20;;;;;;;;;5.00;4.00;;;;;;;;3548813;39;111997;-74
2021/08/02 01:21:47;;;;;;;;;2.00;2.00;;;;;;;;3549235;39;113682;-73
2021/08/02 01:24:17;;;;;;;;;5.25;2.00;;;;;;;;3546008;39;112998;-74
2021/08/02 01:27:10;;;;;;;;;4.25;3.00;;;;;;;;3548925;39;111784;-73
2021/08/02 01:29:55;;;;;;;;;4.75;2.50;;;;;;;;3546976;39;112332;-73
2021/08/02 01:32:22;;;;;;;;;4.50;3.00;;;;;;;;3548347;39;113800;-73
2021/08/02 01:34:48;;;;;;;;;2.00;2.00;;;;;;;;3549387;39;112650;-73
2021/08/02 01:37:15;;;;;;;;;4.75;3.75;;;;;;;;3549327;39;113600;-74
2021/08/02 01:39:49;;;;;;;;;5.00;3.00;;;;;;;;3551318;39;113861;-73
2021/08/02 01:42:16;;;;;;;;;5.00;3.75;;;;;;;;3549231;39;113283;-74
2021/08/02 01:44:42;;;;;;;;;3.00;3.00;;;;;;;;3548802;39;113969;-74
2021/08/02 01:47:10;;;;;;;;;4.50;2.75;;;;;;;;3549520;39;111990;-74
2021/08/02 01:49:40;;;;;;;;;5.00;3.25;;;;;;;;3548511;39;113316;-74
2021/08/02 01:52:10;;;;;;;;;8.25;4.00;;;;;;;;3549220;39;113983;-72
2021/08/02 01:54:41;;;;;;;;;2.00;2.00;;;;;;;;3548364;39;111823;-73
2021/08/02 01:57:12;;;;;;;;;3.00;2.00;;;;;;;;3549795;39;113623;-73
2021/08/02 01:59:40;;;;;;;;;2.00;2.00;;;;;;;;3550947;39;113935;-73
2021/08/02 02:02:09;;;;;;;;;2.00;2.00;;;;;;;;3548919;39;113185;-73
2021/08/02 02:04:38;;;;;;;;;2.00;2.00;;;;;;;;3542011;39;112878;-75
2021/08/02 02:07:06;;;;;;;;;3.00;3.00;;;;;;;;3546697;39;111804;-73
2021/08/02 02:09:35;;;;;;;;;3.00;3.00;;;;;;;;3547884;39;113332;-73
2021/08/02 02:12:02;;;;;;;;;5.50;3.75;;;;;;;;3544110;39;113485;-73
2021/08/02 02:14:31;;;;;;;;;2.00;2.00;;;;;;;;3548528;39;112184;-72
2021/08/02 02:16:59;;;;;;;;;7.25;1.25;;;;;;;;3547334;39;113252;-72
2021/08/02 02:19:27;;;;;;;;;2.00;2.00;;;;;;;;3549461;39;113797;-72
2021/08/02 02:21:54;;;;;;;;;3.00;2.00;;;;;;;;3550967;39;111952;-72
2021/08/02 02:24:21;;;;;;;;;3.25;2.00;;;;;;;;3548902;39;113793;-72
2021/08/02 02:26:47;;;;;;;;;1.75;1.75;;;;;;;;3548362;39;112616;-73
2021/08/02 02:29:15;;;;;;;;;6.00;3.00;;;;;;;;3548812;39;113317;-72
2021/08/02 02:31:44;;;;;;;;;5.00;3.00;;;;;;;;3548413;39;113858;-72
2021/08/02 02:34:11;;;;;;;;;3.50;3.25;;;;;;;;3548678;39;112045;-72
2021/08/02 02:36:39;;;;;;;;;2.25;2.00;;;;;;;;3546630;39;112420;-72
2021/08/02 02:39:06;;;;;;;;;2.00;2.00;;;;;;;;3547872;39;114287;-72
2021/08/02 02:41:34;;;;;;;;;3.75;2.00;;;;;;;;3549456;39;113297;-73
2021/08/02 02:44:01;;;;;;;;;4.75;3.75;;;;;;;;3550328;39;113431;-73
2021/08/02 02:46:29;;;;;;;;;3.00;2.00;;;;;;;;3548138;39;111761;-72
2021/08/02 02:48:57;;;;;;;;;3.00;3.00;;;;;;;;3549948;39;113384;-73
2021/08/02 02:51:26;;;;;;;;;3.00;2.00;;;;;;;;3545721;39;113097;-73
2021/08/02 02:53:53;;;;;;;;;3.50;2.50;;;;;;;;3544956;39;112322;-73
2021/08/02 02:56:20;;;;;;;;;1.50;1.50;;;;;;;;3549096;39;113782;-72
2021/08/02 02:58:47;;;;;;;;;4.00;2.00;;;;;;;;3547876;39;114018;-72
2021/08/02 03:01:15;;;;;;;;;2.75;2.75;;;;;;;;3548770;39;112003;-73
2021/08/02 03:03:45;;;;;;;;;7.25;3.25;;;;;;;;3548733;39;113334;-73
2021/08/02 03:06:13;;;;;;;;;6.25;2.00;;;;;;;;3550740;39;114079;-73
2021/08/02 03:08:41;;;;;;;;;6.25;2.25;;;;;;;;3548813;39;113264;-73
2021/08/02 03:11:09;;;;;;;;;2.00;2.00;;;;;;;;3547796;39;114332;-73
2021/08/02 03:13:36;;;;;;;;;2.00;1.75;;;;;;;;3548857;39;111878;-73
2021/08/02 03:16:02;;;;;;;;;3.75;2.00;;;;;;;;3547912;39;113318;-73
2021/08/02 03:18:29;;;;;;;;;3.50;2.00;;;;;;;;3548867;39;114044;-73
2021/08/02 03:20:56;;;;;;;;;1.50;1.25;;;;;;;;3547632;39;112242;-71
2021/08/02 03:23:26;;;;;;;;;3.00;3.00;;;;;;;;3549503;39;113441;-74
2021/08/02 03:25:56;;;;;;;;;3.25;2.75;;;;;;;;3547276;39;113984;-72
2021/08/02 03:28:26;;;;;;;;;4.00;2.75;;;;;;;;3552030;39;111860;-72
2021/08/02 03:30:57;;;;;;;;;2.25;2.00;;;;;;;;3547156;39;114020;-72
2021/08/02 03:33:26;;;;;;;;;3.75;2.50;;;;;;;;3549513;39;111985;-72
2021/08/02 03:35:54;;;;;;;;;2.75;2.00;;;;;;;;3545859;39;112541;-72
2021/08/02 03:38:21;;;;;;;;;3.00;3.00;;;;;;;;3548754;39;113786;-72
2021/08/02 03:40:49;;;;;;;;;3.75;2.00;;;;;;;;3547817;39;111983;-73
2021/08/02 03:43:16;;;;;;;;;3.00;3.00;;;;;;;;3548645;39;113334;-73
2021/08/02 03:45:44;;;;;;;;;4.25;4.00;;;;;;;;3547600;39;113929;-72
2021/08/02 03:48:10;;;;;;;;;3.00;3.00;;;;;;;;3548481;39;112023;-73
2021/08/02 03:50:38;;;;;;;;;2.00;2.00;;;;;;;;3552016;39;113370;-73
2021/08/02 03:53:05;;;;;;;;;4.50;3.50;;;;;;;;3548971;39;111895;-73
2021/08/02 03:55:33;;;;;;;;;3.00;3.00;;;;;;;;3550272;39;113336;-73
2021/08/02 03:58:01;;;;;;;;;7.25;3.00;;;;;;;;3548336;39;113413;-73
2021/08/02 04:00:28;;;;;;;;;3.00;2.00;;;;;;;;3550270;39;113134;-73
2021/08/02 04:02:54;;;;;;;;;3.50;3.50;;;;;;;;3548778;39;113278;-72
2021/08/02 04:05:21;;;;;;;;;2.25;2.00;;;;;;;;3549779;39;114134;-73
2021/08/02 04:07:48;;;;;;;;;5.00;2.50;;;;;;;;3548915;39;111855;-72
2021/08/02 04:10:14;;;;;;;;;8.00;5.00;;;;;;;;3551872;39;113072;-73
2021/08/02 04:12:42;;;;;;;;;3.00;3.00;;;;;;;;3549598;39;111942;-73
2021/08/02 04:15:11;;;;;;;;;7.50;4.00;;;;;;;;3549159;39;113204;-73
2021/08/02 04:17:37;;;;;;;;;3.00;3.00;;;;;;;;3549283;39;114397;-73
2021/08/02 04:20:04;;;;;;;;;3.50;2.75;;;;;;;;3548982;39;111804;-74
2021/08/02 04:22:31;;;;;;;;;4.50;2.50;;;;;;;;3550134;39;113247;-72
2021/08/02 04:24:57;;;;;;;;;2.00;2.00;;;;;;;;3548293;39;114361;-72
2021/08/02 04:27:24;;;;;;;;;4.25;3.00;;;;;;;;3550313;39;111913;-73
2021/08/02 04:29:51;;;;;;;;;2.50;2.25;;;;;;;;3547470;39;113788;-72
2021/08/02 04:32:19;;;;;;;;;3.00;2.75;;;;;;;;3552009;39;113935;-74
2021/08/02 04:34:45;;;;;;;;;2.50;2.50;;;;;;;;3549456;39;113291;-73
2021/08/02 04:37:12;;;;;;;;;3.00;3.00;;;;;;;;3548839;39;113963;-73
2021/08/02 04:39:38;;;;;;;;;2.75;2.75;;;;;;;;3549549;39;112158;-74
2021/08/02 04:42:05;;;;;;;;;2.25;2.25;;;;;;;;3548910;39;113322;-73
2021/08/02 04:44:31;;;;;;;;;3.00;2.00;;;;;;;;3549552;39;114131;-72
2021/08/02 04:46:58;;;;;;;;;3.00;2.50;;;;;;;;3548600;39;112145;-73
2021/08/02 04:49:26;;;;;;;;;4.00;2.00;;;;;;;;3548666;39;113707;-73
2021/08/02 04:51:52;;;;;;;;;3.50;3.00;;;;;;;;3549643;39;114695;-72
2021/08/02 04:54:19;;;;;;;;;3.00;2.00;;;;;;;;3551707;39;112281;-73
2021/08/02 04:56:45;;;;;;;;;3.00;3.00;;;;;;;;3549227;39;113934;-73
2021/08/02 04:59:12;;;;;;;;;4.75;3.00;;;;;;;;3549109;39;111903;-73
2021/08/02 05:01:38;;;;;;;;;2.75;1.50;;;;;;;;3548384;39;113266;-74
2021/08/02 05:04:05;;;;;;;;;4.25;3.25;;;;;;;;3548086;39;114329;-73
2021/08/02 05:06:33;;;;;;;;;4.25;3.25;;;;;;;;3544404;39;112280;-73
2021/08/02 05:08:59;;;;;;;;;4.25;3.75;;;;;;;;3548514;39;113372;-73
2021/08/02 05:11:26;;;;;;;;;4.00;2.75;;;;;;;;3549622;39;113901;-72
2021/08/02 05:13:53;;;;;;;;;4.75;2.75;;;;;;;;3548444;39;111924;-73
2021/08/02 05:16:19;;;;;;;;;2.00;2.00;;;;;;;;3547899;39;112361;-74
2021/08/02 05:18:46;;;;;;;;;4.50;2.50;;;;;;;;3549381;39;111990;-73
2021/08/02 05:21:12;;;;;;;;;4.75;1.00;;;;;;;;3549319;39;113287;-74
2021/08/02 05:23:40;;;;;;;;;4.00;3.00;;;;;;;;3548589;39;113663;-74
2021/08/02 05:26:07;;;;;;;;;5.50;2.50;;;;;;;;3549348;39;111858;-73
2021/08/02 05:28:33;;;;;;;;;3.00;3.00;;;;;;;;3548801;39;113224;-73
2021/08/02 05:31:00;;;;;;;;;3.00;3.00;;;;;;;;3549337;39;114196;-73
2021/08/02 05:33:26;;;;;;;;;3.50;3.50;;;;;;;;3548146;39;111785;-73
2021/08/02 05:35:53;;;;;;;;;8.25;3.50;;;;;;;;3550031;39;113255;-73
2021/08/02 05:38:20;;;;;;;;;3.75;3.00;;;;;;;;3550820;39;114268;-74
2021/08/02 05:40:47;;;;;;;;;3.00;3.00;;;;;;;;3545226;39;112417;-73
2021/08/02 05:43:14;;;;;;;;;3.25;3.25;;;;;;;;3546025;39;113018;-73
2021/08/02 05:45:40;;;;;;;;;3.00;3.00;;;;;;;;3548956;39;112112;-73
2021/08/02 05:48:07;;;;;;;;;4.00;3.00;;;;;;;;3548775;39;113265;-73
2021/08/02 05:50:34;;;;;;;;;4.50;3.00;;;;;;;;3548993;39;113910;-72
2021/08/02 05:53:00;;;;;;;;;4.25;3.00;;;;;;;;3548321;39;112060;-71
2021/08/02 05:55:27;;;;;;;;;5.00;3.25;;;;;;;;3549774;39;113230;-72
2021/08/02 05:57:55;;;;;;;;;1.75;1.75;;;;;;;;3545753;39;113832;-72
2021/08/02 06:00:22;;;;;;;;;2.50;2.00;;;;;;;;3552446;39;111737;-73
2021/08/02 06:02:49;;;;;;;;;2.00;2.00;;;;;;;;3547939;39;114237;-73
2021/08/02 06:05:15;;;;;;;;;5.50;4.75;;;;;;;;3549431;39;111861;-72
2021/08/02 06:07:43;;;;;;;;;5.25;4.75;;;;;;;;3548793;39;113260;-72
2021/08/02 06:10:11;;;;;;;;;9.25;8.75;;;;;;;;3547835;39;114234;-73
2021/08/02 06:12:38;;;;;;;;;7.00;7.00;;;;;;;;3545812;39;111996;-74
2021/08/02 06:15:07;;;;;;;;;6.25;6.00;;;;;;;;3548635;39;113820;-77
2021/08/02 06:17:33;;;;;;;;;5.50;5.25;;;;;;;;3548988;39;113106;-76
2021/08/02 06:20:00;;;;;;;;;5.50;5.25;;;;;;;;3485796;39;112180;-77
2021/08/02 06:22:26;;;;;;;;;6.00;4.50;;;;;;;;3546559;39;114032;-75
2021/08/02 06:24:53;;;;;;;;;3.50;3.50;;;;;;;;3548145;39;111757;-74
2021/08/02 06:27:20;;;;;;;;;5.25;5.00;;;;;;;;3549357;39;113296;-74
2021/08/02 06:29:46;;;;;;;;;7.00;6.25;;;;;;;;3548305;39;114747;-73
2021/08/02 06:32:14;;;;;;;;;7.25;5.25;;;;;;;;3547730;39;112061;-74
2021/08/02 06:34:41;;;;;;;;;8.50;6.00;;;;;;;;3548890;39;113379;-74
2021/08/02 06:37:07;;;;;;;;;4.50;4.00;;;;;;;;3546878;39;114422;-72
2021/08/02 06:39:34;;;;;;;;;6.25;5.75;;;;;;;;3548394;39;111874;-76
2021/08/02 06:42:00;;;;;;;;;5.75;5.00;;;;;;;;3549857;39;113898;-77
2021/08/02 06:44:27;;;;;;;;;9.25;6.75;;;;;;;;3548003;39;111788;-76
2021/08/02 06:46:53;;;;;;;;;9.50;7.25;;;;;;;;3547479;39;113214;-78
2021/08/02 06:49:21;;;;;;;;;5.50;4.25;;;;;;;;3548885;39;113856;-77
2021/08/02 06:51:48;;;;;;;;;6.00;5.00;;;;;;;;3550119;39;114047;-78
2021/08/02 06:54:14;;;;;;;;;4.50;4.50;;;;;;;;3549883;39;113369;-78
2021/08/02 06:56:42;;;;;;;;;7.75;7.00;;;;;;;;3549233;39;113913;-77
2021/08/02 06:59:08;;;;;;;;;10.25;6.50;;;;;;;;3548546;39;111929;-73
2021/08/02 07:01:36;;;;;;;;;4.50;4.50;;;;;;;;3549076;39;113720;-73
2021/08/02 07:04:02;;;;;;;;;9.25;6.75;;;;;;;;3550258;39;114119;-74
2021/08/02 07:06:33;;;;;;;;;8.50;6.25;;;;;;;;3549165;39;113679;-74
2021/08/02 07:09:00;;;;;;;;;14.50;8.00;;;;;;;;3546913;39;112913;-71
2021/08/02 07:11:26;;;;;;;;;7.50;7.25;;;;;;;;3549346;39;113204;-72
2021/08/02 07:13:54;;;;;;;;;141.25;130.25;;;;;;;;3547947;39;113247;-73
2021/08/02 07:16:21;;;;;;;;;7.50;5.50;;;;;;;;3548330;39;113896;-72
2021/08/02 07:18:47;;;;;;;;;6.00;6.00;;;;;;;;3548544;39;112414;-72
2021/08/02 07:21:14;;;;;;;;;10.00;7.50;;;;;;;;3548738;39;113358;-73
2021/08/02 07:23:42;;;;;;;;;33.50;29.00;;;;;;;;3547762;39;113953;-72
2021/08/02 07:26:08;;;;;;;;;4.67;4.00;;;;;;;;3550972;39;112057;-75
2021/08/02 07:28:35;;;;;;;;;52.75;40.75;;;;;;;;3548454;39;113985;-76
2021/08/02 07:31:02;;;;;;;;;68.00;52.50;;;;;;;;3547666;39;112345;-79
2021/08/02 07:33:28;;;;;;;;;6.33;5.00;;;;;;;;3550355;39;112264;-81
2021/08/02 07:35:55;;;;;;;;;3.00;3.00;;;;;;;;3552451;39;112810;-85
2021/08/02 07:38:22;;;;;;;;;7.33;6.00;;;;;;;;3550885;39;112115;-83
2021/08/02 07:40:50;;;;;;;;;3.00;3.00;;;;;;;;3550980;39;113266;-76
2021/08/02 07:43:17;;;;;;;;;5.00;3.33;;;;;;;;3552223;39;113994;-80
2021/08/02 07:45:43;;;;;;;;;4.00;2.67;;;;;;;;3552425;39;112680;-87
2021/08/02 07:48:10;;;;;;;;;6.00;4.33;;;;;;;;3551010;39;113356;-78
2021/08/02 07:50:36;;;;;;;;;4.33;4.33;;;;;;;;3548388;39;112317;-78
2021/08/02 07:53:03;;;;;;;;;3.00;2.00;;;;;;;;3549211;39;113604;-79
2021/08/02 07:55:30;;;;;;;;;7.33;3.00;;;;;;;;3547289;39;113841;-78
2021/08/02 07:57:58;;;;;;;;;5.00;3.00;;;;;;;;3549086;39;111975;-78
2021/08/02 08:00:24;;;;;;;;;5.33;4.33;;;;;;;;3545410;39;113275;-78
2021/08/02 08:02:51;;;;;;;;;6.33;5.00;;;;;;;;3548834;39;113923;-81
2021/08/02 08:05:17;;;;;;;;;5.00;2.67;;;;;;;;3547501;39;112183;-77
2021/08/02 08:07:45;;;;;;;;;2.00;2.00;;;;;;;;3547894;39;113289;-77
2021/08/02 08:10:12;;;;;;;;;3.33;3.33;;;;;;;;3539985;39;112173;-77
2021/08/02 08:12:39;;;;;;;;;5.00;3.33;;;;;;;;3525296;39;113658;-76
2021/08/02 08:15:07;;;;;;;;;2.00;2.00;;;;;;;;3547283;39;113835;-77
2021/08/02 08:17:34;;;;;;;;;2.00;2.00;;;;;;;;3547258;39;111837;-75
2021/08/02 08:20:01;;;;;;;;;1.00;0.67;;;;;;;;3547287;39;113613;-77
2021/08/02 08:22:28;;;;;;;;;1.00;1.00;;;;;;;;3548388;39;114770;-77
2021/08/02 08:24:57;;;;;;;;;1.00;1.00;;;;;;;;3548913;39;112026;-80
2021/08/02 08:27:24;;;;;;;;;2.67;1.67;;;;;;;;3547539;39;113295;-78
2021/08/02 08:29:50;;;;;;;;;2.67;1.00;;;;;;;;3550876;39;114162;-82
2021/08/02 08:32:18;;;;;;;;;2.33;1.00;;;;;;;;3547568;39;113131;-82
2021/08/02 08:34:45;;;;;;;;;4.33;3.00;;;;;;;;3547766;39;113963;-81
2021/08/02 08:37:14;;;;;;;;;3.00;3.00;;;;;;;;3547950;39;112072;-81
2021/08/02 08:39:41;;;;;;;;;2.00;2.00;;;;;;;;3547652;39;113291;-80
2021/08/02 08:42:08;;;;;;;;;1.33;1.00;;;;;;;;3547708;39;113889;-81
2021/08/02 08:44:34;;;;;;;;;1.33;1.33;;;;;;;;3543387;39;112133;-81
2021/08/02 08:49:34;;;;;;;;;2.00;2.00;;;;;;;;3509511;40;112470;-82
2021/08/02 08:52:01;;;;;;;;;0.33;0.33;;;;;;;;3511709;40;111890;-81
2021/08/02 08:54:30;;;;;;;;;3.67;2.00;;;;;;;;3512061;39;113980;-84
2021/08/02 08:56:56;;;;;;;;;3.67;3.33;;;;;;;;3510424;40;112225;-80
2021/08/02 08:59:23;;;;;;;;;2.00;2.00;;;;;;;;3508680;40;113341;-79
2021/08/02 09:02:00;;;;;;;;;3.00;3.00;;;;;;;;3508588;40;113820;-83
2021/08/02 09:04:28;;;;;;;;;2.00;1.00;;;;;;;;3509743;40;112447;-84
2021/08/02 09:06:58;;;;;;;;;0.33;0.33;;;;;;;;3510715;40;114847;-80
2021/08/02 09:09:27;;;;;;;;;2.00;2.00;;;;;;;;3509999;40;114203;-79
2021/08/02 09:12:03;;;;;;;;;1.67;1.00;;;;;;;;3510267;40;113984;-82
2021/08/02 09:14:30;;;;;;;;;1.00;1.00;;;;;;;;3512613;40;113343;-80
2021/08/02 09:17:00;;;;;;;;;3.00;1.33;;;;;;;;3508568;40;112244;-79
2021/08/02 09:19:27;;;;;;;;;3.00;3.00;;;;;;;;3508297;40;113433;-77
2021/08/02 09:21:53;;;;;;;;;3.00;2.00;;;;;;;;3509624;40;113757;-79
2021/08/02 09:24:29;;;;;;;;;2.00;1.00;;;;;;;;3508547;40;112520;-78
2021/08/02 09:26:56;;;;;;;;;1.33;1.00;;;;;;;;3510478;40;113352;-81
2021/08/02 09:29:28;;;;;;;;;1.00;1.00;;;;;;;;3509841;40;113933;-84
2021/08/02 09:31:54;;;;;;;;;2.00;1.67;;;;;;;;3508363;40;112012;-79
2021/08/02 09:34:22;;;;;;;;;3.00;2.67;;;;;;;;3509789;40;113426;-80
2021/08/02 09:36:55;;;;;;;;;4.33;2.00;;;;;;;;3508755;40;112585;-81
2021/08/02 09:39:21;;;;;;;;;2.33;2.33;;;;;;;;3509199;40;111904;-80
2021/08/02 09:41:49;;;;;;;;;5.00;3.00;;;;;;;;3509799;40;113993;-82
2021/08/02 09:44:19;;;;;;;;;2.67;1.00;;;;;;;;3507404;40;112165;-86
2021/08/02 09:46:52;;;;;;;;;1.00;1.00;;;;;;;;3512254;40;113371;-87
2021/08/02 09:49:19;;;;;;;;;2.33;1.00;;;;;;;;3510518;40;114463;-87
2021/08/02 09:51:46;;;;;;;;;3.00;2.00;;;;;;;;3509016;40;112119;-85
2021/08/02 09:54:22;;;;;;;;;1.67;1.67;;;;;;;;3510940;40;113645;-86
2021/08/02 09:56:51;;;;;;;;;4.33;2.00;;;;;;;;3509961;40;113959;-89
2021/08/02 09:59:19;;;;;;;;;2.00;1.33;;;;;;;;3518349;40;112373;-88
2021/08/02 10:01:47;;;;;;;;;2.00;2.00;;;;;;;;3511294;40;113114;-89
2021/08/02 10:04:15;;;;;;;;;1.33;1.33;;;;;;;;3507792;40;112114;-88
2021/08/02 10:06:41;;;;;;;;;1.00;1.00;;;;;;;;3509720;40;113344;-81
2021/08/02 10:09:08;;;;;;;;;2.00;1.67;;;;;;;;3512225;40;114279;-94
2021/08/02 10:11:36;;;;;;;;;3.00;2.67;;;;;;;;3508416;40;111864;-82
2021/08/02 10:14:04;;;;;;;;;3.00;2.00;;;;;;;;3512532;40;112830;-84
2021/08/02 10:16:32;;;;;;;;;3.00;3.00;;;;;;;;3508087;40;113012;-84
2021/08/02 10:19:02;;;;;;;;;1.00;1.00;;;;;;;;3511542;40;111913;-87
2021/08/02 10:21:37;;;;;;;;;3.00;3.00;;;;;;;;3510262;40;113993;-88
2021/08/02 10:24:05;;;;;;;;;2.33;1.00;;;;;;;;3509507;40;111825;-89
2021/08/02 10:26:31;;;;;;;;;3.00;2.00;;;;;;;;3511564;40;113259;-88
2021/08/02 10:28:59;;;;;;;;;3.00;3.00;;;;;;;;3509179;40;112822;-84
2021/08/02 10:31:27;;;;;;;;;3.00;2.00;;;;;;;;3509686;40;111987;-86
2021/08/02 10:33:56;;;;;;;;;1.67;1.67;;;;;;;;3509821;40;113336;-84
2021/08/02 10:36:24;;;;;;;;;3.67;2.00;;;;;;;;3511444;40;114192;-87
2021/08/02 10:38:54;;;;;;;;;4.33;3.00;;;;;;;;3508936;40;112118;-84
2021/08/02 10:41:24;;;;;;;;;2.00;2.00;;;;;;;;3512325;40;113432;-86
2021/08/02 10:43:51;;;;;;;;;2.00;2.00;;;;;;;;3508973;40;112144;-86
2021/08/02 10:46:19;;;;;;;;;2.33;2.00;;;;;;;;3510896;40;113963;-86
2021/08/02 10:48:47;;;;;;;;;1.33;1.33;;;;;;;;3512489;40;113894;-86
2021/08/02 10:51:14;;;;;;;;;2.00;2.00;;;;;;;;3513615;40;111951;-83
2021/08/02 10:53:41;;;;;;;;;2.67;1.00;;;;;;;;3511737;40;113337;-84
2021/08/02 10:56:08;;;;;;;;;1.67;1.00;;;;;;;;3512399;40;114326;-82
2021/08/02 10:58:37;;;;;;;;;1.67;1.67;;;;;;;;3511675;40;112070;-84
2021/08/02 11:01:05;;;;;;;;;2.00;2.00;;;;;;;;3514124;40;113357;-84
2021/08/02 11:03:32;;;;;;;;;2.00;2.00;;;;;;;;3508767;40;113571;-80
2021/08/02 11:06:05;;;;;;;;;4.00;2.00;;;;;;;;3506620;40;112366;-81
2021/08/02 11:08:35;;;;;;;;;1.67;1.67;;;;;;;;3510591;40;113986;-81
2021/08/02 11:11:03;;;;;;;;;1.00;1.00;;;;;;;;3511869;40;112389;-83
2021/08/02 11:13:31;;;;;;;;;3.00;1.00;;;;;;;;3512802;40;112217;-86
2021/08/02 11:15:57;;;;;;;;;2.33;1.00;;;;;;;;3512585;40;113902;-85
2021/08/02 11:18:24;;;;;;;;;0.33;0.00;;;;;;;;3510681;40;112027;-85
2021/08/02 11:20:51;;;;;;;;;1.00;1.00;;;;;;;;3511703;40;113920;-83
2021/08/02 11:23:29;;;;;;;;;0.00;0.00;;;;;;;;3514737;40;113860;-86
2021/08/02 11:26:04;;;;;;;;;0.00;0.00;;;;;;;;3516193;40;112163;-81
2021/08/02 11:28:37;;;;;;;;;3.00;1.00;;;;;;;;3512769;40;113957;-81
2021/08/02 11:31:03;;;;;;;;;0.00;0.00;;;;;;;;3513053;40;112511;-81
2021/08/02 11:33:31;;;;;;;;;0.00;0.00;;;;;;;;3512766;40;113910;-80
2021/08/02 11:35:58;;;;;;;;;1.00;1.00;;;;;;;;3508334;40;113927;-84
2021/08/02 11:38:35;;;;;;;;;2.67;1.00;;;;;;;;3510827;40;112622;-80
2021/08/02 11:41:01;;;;;;;;;1.00;0.00;;;;;;;;3509459;40;113775;-80
2021/08/02 11:43:28;;;;;;;;;0.00;0.00;;;;;;;;3509480;40;113937;-81
2021/08/02 11:45:55;;;;;;;;;0.67;0.67;;;;;;;;3510061;40;112468;-81
2021/08/02 11:48:23;;;;;;;;;2.67;1.00;;;;;;;;3510495;40;113739;-82
2021/08/02 11:50:49;;;;;;;;;2.00;2.00;;;;;;;;3508976;40;112157;-82
2021/08/02 11:53:16;;;;;;;;;1.00;0.67;;;;;;;;3509986;40;113839;-82
2021/08/02 11:55:51;;;;;;;;;0.00;0.00;;;;;;;;3507547;40;114515;-83
2021/08/02 11:58:17;;;;;;;;;1.00;1.00;;;;;;;;3508333;40;113441;-81
2021/08/02 12:00:44;;;;;;;;;2.00;1.00;;;;;;;;3507841;40;113234;-82
2021/08/02 12:03:12;;;;;;;;;1.00;0.67;;;;;;;;3508244;40;113860;-81
2021/08/02 12:05:40;;;;;;;;;3.00;1.00;;;;;;;;3504964;40;112582;-74
2021/08/02 12:08:11;;;;;;;;;3.00;2.00;;;;;;;;3508698;40;113344;-80
2021/08/02 12:10:38;;;;;;;;;2.00;0.00;;;;;;;;3511752;40;113922;-80
2021/08/02 12:13:06;;;;;;;;;2.00;1.00;;;;;;;;3509848;40;113254;-79
2021/08/02 12:15:33;;;;;;;;;0.33;0.33;;;;;;;;3508751;40;113863;-79
2021/08/02 12:18:00;;;;;;;;;0.33;0.33;;;;;;;;3510539;40;111977;-79
2021/08/02 12:20:31;;;;;;;;;0.00;0.00;;;;;;;;3509535;40;113742;-78
2021/08/02 12:22:57;;;;;;;;;3.67;0.00;;;;;;;;3510483;40;113902;-81
2021/08/02 12:25:33;;;;;;;;;0.67;0.67;;;;;;;;3510555;40;111903;-78
2021/08/02 12:28:00;;;;;;;;;0.33;0.33;;;;;;;;3510744;40;113376;-79
2021/08/02 12:30:28;;;;;;;;;1.67;0.00;;;;;;;;3510891;40;114407;-79
2021/08/02 12:32:55;;;;;;;;;0.67;0.33;;;;;;;;3510368;40;113616;-79
2021/08/02 12:35:21;;;;;;;;;1.33;0.00;;;;;;;;3508458;40;113872;-79
2021/08/02 12:37:48;;;;;;;;;1.67;0.00;;;;;;;;3510002;40;112388;-79
2021/08/02 12:40:16;;;;;;;;;0.00;0.00;;;;;;;;3508873;40;113442;-79
2021/08/02 12:42:43;;;;;;;;;0.00;0.00;;;;;;;;3509481;40;114261;-80
2021/08/02 12:45:10;;;;;;;;;2.00;0.00;;;;;;;;3510825;40;111847;-79
2021/08/02 12:47:38;;;;;;;;;3.00;1.00;;;;;;;;3510501;40;113231;-78
2021/08/02 12:50:07;;;;;;;;;0.00;0.00;;;;;;;;3509346;40;114041;-78
2021/08/02 12:52:33;;;;;;;;;1.33;1.33;;;;;;;;3511644;40;113223;-78
2021/08/02 12:55:00;;;;;;;;;0.33;0.33;;;;;;;;3510075;40;113875;-78
2021/08/02 12:57:28;;;;;;;;;1.00;1.00;;;;;;;;3509029;40;112277;-79
2021/08/02 12:59:57;;;;;;;;;1.00;1.00;;;;;;;;3509031;40;113328;-79
2021/08/02 13:02:24;;;;;;;;;2.00;1.00;;;;;;;;3510494;40;114031;-77
2021/08/02 13:04:52;;;;;;;;;2.00;1.00;;;;;;;;3507973;40;112138;-77
2021/08/02 13:07:18;;;;;;;;;2.00;0.67;;;;;;;;3505135;40;112498;-79
2021/08/02 13:09:46;;;;;;;;;1.00;1.00;;;;;;;;3508806;40;113889;-77
2021/08/02 13:12:13;;;;;;;;;1.00;1.00;;;;;;;;3509578;40;111868;-78
2021/08/02 13:14:39;;;;;;;;;1.00;1.00;;;;;;;;3511570;40;112824;-79
2021/08/02 13:17:06;;;;;;;;;1.33;1.00;;;;;;;;3509446;40;111922;-79
2021/08/02 13:19:33;;;;;;;;;1.00;0.33;;;;;;;;3509797;40;113354;-80
2021/08/02 13:22:01;;;;;;;;;0.00;0.00;;;;;;;;3507829;40;113914;-77
2021/08/02 13:27:12;;;;;;;;;1.00;1.00;;;;;;;;3517740;39;112115;-81
2021/08/02 13:29:40;;;;;;;;;0.00;0.00;;;;;;;;3511475;39;112948;-80
2021/08/02 13:32:07;;;;;;;;;1.00;0.67;;;;;;;;3518949;39;112823;-79
2021/08/02 13:34:35;;;;;;;;;2.00;2.00;;;;;;;;3519106;39;113198;-80
2021/08/02 13:37:03;;;;;;;;;1.00;1.00;;;;;;;;3521253;39;113927;-79
2021/08/02 13:39:30;;;;;;;;;1.00;0.33;;;;;;;;3519297;39;113446;-78
2021/08/02 13:41:58;;;;;;;;;1.00;1.00;;;;;;;;3519156;39;112889;-79
2021/08/02 13:44:24;;;;;;;;;1.00;1.00;;;;;;;;3518186;39;112290;-79
2021/08/02 13:46:52;;;;;;;;;3.00;2.00;;;;;;;;3519329;39;113303;-80
2021/08/02 13:49:19;;;;;;;;;2.33;1.33;;;;;;;;3512936;39;115015;-79
2021/08/02 13:51:46;;;;;;;;;1.33;1.33;;;;;;;;3518559;39;111934;-79
2021/08/02 13:54:16;;;;;;;;;2.00;0.33;;;;;;;;3512280;39;113379;-77
2021/08/02 13:56:43;;;;;;;;;2.00;1.00;;;;;;;;3511265;40;114240;-74
2021/08/02 13:59:10;;;;;;;;;3.00;1.33;;;;;;;;3512039;40;112321;-74
2021/08/02 14:01:37;;;;;;;;;1.00;1.00;;;;;;;;3509030;40;113774;-75
2021/08/02 14:04:04;;;;;;;;;1.00;1.00;;;;;;;;3509785;40;112987;-82
2021/08/02 14:06:32;;;;;;;;;1.00;0.00;;;;;;;;3511931;39;113785;-82
2021/08/02 14:08:58;;;;;;;;;1.33;1.00;;;;;;;;3510220;40;114227;-81
2021/08/02 14:11:26;;;;;;;;;2.00;2.00;;;;;;;;3517889;39;112903;-81
2021/08/02 14:13:54;;;;;;;;;3.00;0.00;;;;;;;;3517705;39;113377;-82
2021/08/02 14:16:23;;;;;;;;;2.00;1.00;;;;;;;;3520012;39;113823;-83
2021/08/02 14:19:00;;;;;;;;;1.00;0.00;;;;;;;;3515104;39;111879;-80
2021/08/02 14:21:27;;;;;;;;;3.00;0.00;;;;;;;;3513436;40;113368;-80
2021/08/02 14:23:54;;;;;;;;;1.67;1.67;;;;;;;;3510918;40;111897;-82
2021/08/02 14:26:21;;;;;;;;;0.00;0.00;;;;;;;;3506499;40;112508;-74
2021/08/02 14:28:50;;;;;;;;;1.00;0.00;;;;;;;;3509265;40;113676;-72
2021/08/02 14:31:17;;;;;;;;;0.33;0.33;;;;;;;;3509799;40;111927;-73
2021/08/02 14:33:44;;;;;;;;;0.33;0.33;;;;;;;;3509542;40;113721;-73
2021/08/02 14:36:11;;;;;;;;;1.00;0.67;;;;;;;;3508616;40;115357;-73
2021/08/02 14:38:40;;;;;;;;;1.00;1.00;;;;;;;;3507704;40;111992;-72